Time;durP1;ratioP1;P1;durP2;ratioP2;P2;SDS_P1;SDS_P2;PMS_P1;PMS_P2;Temp;Humidity;BMP_temperature;BMP_pressure;BME280_temperature;BME280_humidity;BME280_pressure;Samples;Min_cycle;Max_cycle;Signal;HPM_P1;HPM_P2
2021/07/26 00:00:52;;;;;;;24.33;19.92;;;20.00;99.90;;;;;;2048321;29;20494;-72
2021/07/26 00:01:52;;;;;;;21.95;19.55;;;20.00;99.90;;;;;;2047819;29;20035;-72
2021/07/26 00:02:53;;;;;;;23.10;20.63;;;20.00;99.90;;;;;;2047816;29;20019;-72
2021/07/26 00:03:53;;;;;;;23.20;20.20;;;20.00;99.90;;;;;;2048169;29;20023;-71
2021/07/26 00:04:54;;;;;;;22.75;20.20;;;20.00;99.90;;;;;;2048245;29;20473;-72
2021/07/26 00:05:58;;;;;;;21.88;19.48;;;20.00;99.90;;;;;;2048291;29;20031;-72
2021/07/26 00:07:01;;;;;;;20.73;18.52;;;20.00;99.90;;;;;;2048446;28;20033;-72
2021/07/26 00:08:02;;;;;;;21.63;17.25;;;20.00;99.90;;;;;;2047593;28;20118;-72
2021/07/26 00:09:02;;;;;;;20.35;17.40;;;20.00;99.90;;;;;;2048381;28;20027;-71
2021/07/26 00:10:04;;;;;;;22.38;17.40;;;19.90;99.90;;;;;;2048344;29;20102;-71
2021/07/26 00:11:06;;;;;;;20.13;17.05;;;19.90;99.90;;;;;;2048339;29;20024;-72
2021/07/26 00:12:08;;;;;;;19.23;16.63;;;19.90;99.90;;;;;;2048466;28;20395;-72
2021/07/26 00:13:09;;;;;;;17.63;15.57;;;19.90;99.90;;;;;;2048409;28;20050;-71
2021/07/26 00:14:09;;;;;;;20.05;15.68;;;19.90;99.90;;;;;;2047621;29;20023;-72
2021/07/26 00:15:11;;;;;;;18.38;15.20;;;19.90;99.90;;;;;;2047822;29;20036;-71
2021/07/26 00:16:11;;;;;;;18.85;15.35;;;19.90;99.90;;;;;;2048359;29;20499;-71
2021/07/26 00:17:12;;;;;;;19.25;16.10;;;19.90;99.90;;;;;;2048131;29;20038;-72
2021/07/26 00:18:13;;;;;;;20.38;14.93;;;19.90;99.90;;;;;;2047534;29;20035;-71
2021/07/26 00:19:13;;;;;;;19.38;15.38;;;19.90;99.90;;;;;;2047656;29;20026;-72
2021/07/26 00:20:15;;;;;;;16.83;15.00;;;19.90;99.90;;;;;;2047595;28;20038;-72
2021/07/26 00:21:16;;;;;;;15.63;13.65;;;19.90;99.90;;;;;;2047690;29;20039;-72
2021/07/26 00:22:17;;;;;;;16.60;14.85;;;19.90;99.90;;;;;;2048322;29;20090;-71
2021/07/26 00:23:17;;;;;;;17.23;15.35;;;19.90;99.90;;;;;;2048160;28;20110;-73
2021/07/26 00:24:19;;;;;;;16.05;14.35;;;20.00;99.90;;;;;;2048002;29;20099;-72
2021/07/26 00:25:22;;;;;;;17.08;14.63;;;19.90;99.90;;;;;;2048310;29;20035;-73
2021/07/26 00:26:25;;;;;;;17.95;13.93;;;19.90;99.90;;;;;;2048389;28;20042;-72
2021/07/26 00:27:26;;;;;;;17.23;14.75;;;20.00;99.90;;;;;;2048550;28;20033;-72
2021/07/26 00:28:30;;;;;;;19.20;14.60;;;19.90;99.90;;;;;;2047801;29;20058;-73
2021/07/26 00:29:30;;;;;;;17.67;13.85;;;19.90;99.90;;;;;;2048113;29;20027;-73
2021/07/26 00:30:31;;;;;;;15.02;13.05;;;19.90;99.90;;;;;;2039930;29;20718;-72
2021/07/26 00:31:31;;;;;;;15.07;13.02;;;19.90;99.90;;;;;;2048077;29;20035;-72
2021/07/26 00:32:34;;;;;;;14.85;13.02;;;19.90;99.90;;;;;;2048510;29;20042;-72
2021/07/26 00:34:15;;;;;;;13.63;12.23;;;19.90;99.90;;;;;;2048202;29;20030;-72
2021/07/26 00:35:15;;;;;;;16.23;12.70;;;19.90;99.90;;;;;;2048317;29;20043;-73
2021/07/26 00:36:16;;;;;;;15.05;13.45;;;19.90;99.90;;;;;;2048013;28;20073;-73
2021/07/26 00:37:18;;;;;;;15.70;13.30;;;19.90;99.90;;;;;;2048220;29;20035;-73
2021/07/26 00:38:19;;;;;;;14.35;12.30;;;19.90;99.90;;;;;;2047720;29;20123;-72
2021/07/26 00:39:25;;;;;;;16.60;13.63;;;19.90;99.90;;;;;;2047756;28;20031;-73
2021/07/26 00:40:26;;;;;;;16.85;13.70;;;19.90;99.90;;;;;;2047905;29;20426;-72
2021/07/26 00:41:27;;;;;;;14.77;13.07;;;19.90;99.90;;;;;;2048277;29;20071;-72
2021/07/26 00:42:27;;;;;;;14.85;12.45;;;19.90;99.90;;;;;;2048469;28;20034;-72
2021/07/26 00:43:28;;;;;;;13.85;12.38;;;19.90;99.90;;;;;;2047811;29;20043;-73
2021/07/26 00:44:30;;;;;;;15.15;12.52;;;19.90;99.90;;;;;;2047748;29;20020;-72
2021/07/26 00:45:34;;;;;;;15.25;12.50;;;19.90;99.90;;;;;;2048485;28;20038;-72
2021/07/26 00:46:35;;;;;;;14.45;12.43;;;19.90;99.90;;;;;;2048428;29;20031;-72
2021/07/26 00:47:35;;;;;;;14.15;12.65;;;19.90;99.90;;;;;;2047563;28;20078;-73
2021/07/26 00:48:36;;;;;;;14.70;12.38;;;19.90;99.90;;;;;;2048420;29;20035;-73
2021/07/26 00:49:37;;;;;;;19.75;14.45;;;19.90;99.90;;;;;;2048168;29;20502;-72
2021/07/26 00:50:38;;;;;;;18.55;13.20;;;19.90;99.90;;;;;;2047633;29;20098;-72
2021/07/26 00:51:40;;;;;;;14.93;13.27;;;19.90;99.90;;;;;;2047570;29;20070;-72
2021/07/26 00:52:41;;;;;;;18.52;13.60;;;19.90;99.90;;;;;;2048071;29;20138;-72
2021/07/26 00:53:42;;;;;;;17.48;13.30;;;19.90;99.90;;;;;;2048049;29;20031;-71
2021/07/26 00:54:43;;;;;;;16.85;13.15;;;19.90;99.90;;;;;;2048026;29;20035;-72
2021/07/26 00:55:44;;;;;;;16.55;12.90;;;19.80;99.90;;;;;;2048136;29;20034;-72
2021/07/26 00:56:47;;;;;;;16.15;12.10;;;19.90;99.90;;;;;;2048211;28;20031;-71
2021/07/26 00:57:48;;;;;;;13.95;12.35;;;19.90;99.90;;;;;;2047296;29;20039;-73
2021/07/26 00:58:50;;;;;;;14.32;12.65;;;19.80;99.90;;;;;;2048202;29;20046;-73
2021/07/26 00:59:53;;;;;;;13.77;12.35;;;19.80;99.90;;;;;;2048096;28;20027;-73
2021/07/26 01:00:55;;;;;;;15.02;13.00;;;19.80;99.90;;;;;;2048109;28;20076;-72
2021/07/26 01:01:57;;;;;;;14.38;12.38;;;19.80;99.90;;;;;;2048021;28;20069;-72
2021/07/26 01:02:58;;;;;;;14.75;12.98;;;19.80;99.90;;;;;;2048078;29;20033;-73
2021/07/26 01:03:58;;;;;;;15.55;13.68;;;19.70;99.90;;;;;;2048055;29;20471;-72
2021/07/26 01:04:59;;;;;;;15.48;13.52;;;19.70;99.90;;;;;;2048187;29;20031;-73
2021/07/26 01:06:00;;;;;;;15.20;13.60;;;19.70;99.90;;;;;;2047833;29;20031;-73
2021/07/26 01:07:00;;;;;;;15.63;13.05;;;19.70;99.90;;;;;;2048076;29;20026;-73
2021/07/26 01:08:04;;;;;;;16.35;13.73;;;19.60;99.90;;;;;;2047272;29;20035;-72
2021/07/26 01:09:05;;;;;;;16.77;13.18;;;19.70;99.90;;;;;;2047984;29;20051;-72
2021/07/26 01:10:06;;;;;;;14.70;13.20;;;19.60;99.90;;;;;;2048208;28;20019;-72
2021/07/26 01:11:07;;;;;;;16.88;13.40;;;19.60;99.90;;;;;;2047518;29;20063;-72
2021/07/26 01:12:08;;;;;;;14.45;12.95;;;19.60;99.90;;;;;;2047635;29;20035;-72
2021/07/26 01:13:08;;;;;;;15.50;13.20;;;19.50;99.90;;;;;;2048411;29;20372;-72
2021/07/26 01:14:18;;;;;;;15.43;13.20;;;19.50;99.90;;;;;;2047670;29;20031;-73
2021/07/26 01:15:18;;;;;;;16.08;12.80;;;19.50;99.90;;;;;;2047885;29;20091;-72
2021/07/26 01:16:19;;;;;;;14.40;12.80;;;19.50;99.90;;;;;;2047341;29;20856;-71
2021/07/26 01:17:41;;;;;;;15.45;13.38;;;19.50;99.90;;;;;;2047286;29;20031;-73
2021/07/26 01:18:42;;;;;;;14.73;13.05;;;19.40;99.90;;;;;;2042211;29;20044;-72
2021/07/26 01:19:43;;;;;;;16.10;13.73;;;19.40;99.90;;;;;;2047374;29;20027;-72
2021/07/26 01:20:43;;;;;;;15.20;13.50;;;19.40;99.90;;;;;;2047380;29;20035;-73
2021/07/26 01:21:44;;;;;;;17.25;14.38;;;19.40;99.90;;;;;;2047361;29;20027;-73
2021/07/26 01:22:45;;;;;;;20.05;15.70;;;19.40;99.90;;;;;;2047908;29;20028;-73
2021/07/26 01:23:50;;;;;;;22.23;15.25;;;19.40;99.90;;;;;;2047811;28;20395;-72
2021/07/26 01:24:50;;;;;;;18.80;15.43;;;19.30;99.90;;;;;;2048427;28;20094;-73
2021/07/26 01:25:52;;;;;;;18.90;14.68;;;19.30;99.90;;;;;;2048710;29;20031;-73
2021/07/26 01:26:52;;;;;;;18.98;14.48;;;19.30;99.90;;;;;;2048853;29;20034;-73
2021/07/26 01:27:53;;;;;;;16.15;14.07;;;19.30;99.90;;;;;;2048069;29;20031;-73
2021/07/26 01:29:05;;;;;;;16.13;13.93;;;19.30;99.90;;;;;;2051071;29;20383;-73
2021/07/26 01:30:06;;;;;;;16.23;14.10;;;19.20;99.90;;;;;;2052366;29;20038;-73
2021/07/26 01:31:10;;;;;;;15.98;14.20;;;19.20;99.90;;;;;;2051882;28;20050;-72
2021/07/26 01:32:10;;;;;;;16.15;14.45;;;19.20;99.90;;;;;;2049475;28;20126;-73
2021/07/26 01:33:12;;;;;;;15.98;14.10;;;19.20;99.90;;;;;;2048659;29;20030;-72
2021/07/26 01:34:13;;;;;;;18.20;14.65;;;19.10;99.90;;;;;;2049426;28;20069;-72
2021/07/26 01:35:13;;;;;;;16.05;14.05;;;19.10;99.90;;;;;;2048648;29;20071;-72
2021/07/26 01:36:15;;;;;;;16.67;13.98;;;19.10;99.90;;;;;;2048740;29;20396;-72
2021/07/26 01:37:15;;;;;;;16.77;14.50;;;19.10;99.90;;;;;;2049359;29;20110;-73
2021/07/26 01:38:16;;;;;;;16.02;14.35;;;19.10;99.90;;;;;;2048307;29;20114;-72
2021/07/26 01:39:17;;;;;;;16.80;14.90;;;19.10;99.90;;;;;;2047998;29;20050;-73
2021/07/26 01:40:17;;;;;;;17.90;15.50;;;19.10;99.90;;;;;;2048650;29;20108;-73
2021/07/26 01:41:21;;;;;;;19.00;16.08;;;19.00;99.90;;;;;;2049408;28;20031;-73
2021/07/26 01:42:22;;;;;;;19.13;16.58;;;19.00;99.90;;;;;;2049255;28;20031;-73
2021/07/26 01:43:25;;;;;;;18.88;16.52;;;19.10;99.90;;;;;;2048919;28;20086;-73
2021/07/26 01:44:26;;;;;;;18.70;15.75;;;19.00;99.90;;;;;;2048724;28;20020;-73
2021/07/26 01:45:27;;;;;;;20.02;16.60;;;19.00;99.90;;;;;;2048641;29;20031;-73
2021/07/26 01:46:51;;;;;;;20.30;16.85;;;19.10;99.90;;;;;;2048956;29;20070;-73
2021/07/26 01:47:59;;;;;;;18.80;16.17;;;19.00;99.90;;;;;;2048693;29;20026;-73
2021/07/26 01:49:15;;;;;;;18.40;16.50;;;19.00;99.90;;;;;;2049518;29;20926;-73
2021/07/26 01:50:21;;;;;;;23.60;18.48;;;19.10;99.90;;;;;;2049684;29;20049;-73
2021/07/26 01:51:44;;;;;;;23.15;19.30;;;19.10;99.90;;;;;;2049366;29;20099;-73
2021/07/26 01:52:48;;;;;;;22.90;18.88;;;19.10;99.90;;;;;;2049561;29;20183;-72
2021/07/26 01:53:49;;;;;;;23.52;18.50;;;19.10;99.90;;;;;;2049253;29;20070;-74
2021/07/26 01:54:52;;;;;;;22.50;17.60;;;19.10;99.90;;;;;;2053672;29;20031;-73
2021/07/26 01:55:53;;;;;;;20.15;17.85;;;19.10;99.90;;;;;;2053413;29;20043;-73
2021/07/26 01:56:55;;;;;;;21.58;17.48;;;19.10;99.90;;;;;;2053883;29;20035;-73
2021/07/26 01:57:56;;;;;;;21.10;16.98;;;19.10;99.90;;;;;;2053546;29;20039;-73
2021/07/26 01:58:58;;;;;;;20.10;17.25;;;19.10;99.90;;;;;;2050819;29;20176;-73
2021/07/26 01:59:58;;;;;;;20.40;17.17;;;19.10;99.90;;;;;;2049688;29;20091;-73
2021/07/26 02:00:59;;;;;;;19.08;16.83;;;19.10;99.90;;;;;;2049873;28;20030;-72
2021/07/26 02:01:59;;;;;;;19.67;16.90;;;19.00;99.90;;;;;;2048587;29;20491;-72
2021/07/26 02:03:00;;;;;;;19.65;16.95;;;19.00;99.90;;;;;;2040953;29;20020;-72
2021/07/26 02:04:01;;;;;;;20.55;18.15;;;19.00;99.90;;;;;;2040872;29;20770;-72
2021/07/26 02:05:02;;;;;;;19.45;16.55;;;19.00;99.90;;;;;;2048833;29;20031;-72
2021/07/26 02:06:02;;;;;;;18.23;16.30;;;19.00;99.90;;;;;;2049221;29;20119;-72
2021/07/26 02:07:06;;;;;;;20.80;17.10;;;19.00;99.90;;;;;;2048616;29;20134;-72
2021/07/26 02:08:07;;;;;;;19.23;16.80;;;19.00;99.90;;;;;;2047950;29;20058;-72
2021/07/26 02:09:07;;;;;;;21.40;18.85;;;19.00;99.90;;;;;;2049182;29;20035;-72
2021/07/26 02:10:08;;;;;;;21.52;17.58;;;19.00;99.90;;;;;;2049338;29;20016;-72
2021/07/26 02:11:09;;;;;;;21.77;17.00;;;19.00;99.90;;;;;;2049327;29;20035;-72
2021/07/26 02:12:10;;;;;;;22.08;17.33;;;19.00;99.90;;;;;;2049127;29;20062;-72
2021/07/26 02:13:12;;;;;;;20.35;17.23;;;19.00;99.90;;;;;;2040505;29;20028;-72
2021/07/26 02:14:13;;;;;;;21.83;18.10;;;18.90;99.90;;;;;;2040957;29;20538;-72
2021/07/26 02:15:14;;;;;;;25.90;18.08;;;18.90;99.90;;;;;;2048900;29;20031;-72
2021/07/26 02:16:17;;;;;;;23.98;18.63;;;18.90;99.90;;;;;;2049286;29;20575;-72
2021/07/26 02:17:17;;;;;;;27.25;17.70;;;18.90;99.90;;;;;;2049199;29;20149;-72
2021/07/26 02:18:18;;;;;;;25.83;17.45;;;18.90;99.90;;;;;;2048475;29;20395;-72
2021/07/26 02:19:19;;;;;;;20.02;15.90;;;18.90;99.90;;;;;;2049155;29;20050;-73
2021/07/26 02:20:21;;;;;;;20.00;15.68;;;18.90;99.90;;;;;;2049120;28;20028;-72
2021/07/26 02:21:21;;;;;;;18.10;16.00;;;18.80;99.90;;;;;;2049075;29;20139;-72
2021/07/26 02:22:22;;;;;;;19.70;16.17;;;18.80;99.90;;;;;;2048976;29;20607;-72
2021/07/26 02:23:22;;;;;;;20.50;16.05;;;18.80;99.90;;;;;;2049036;29;20395;-72
2021/07/26 02:24:23;;;;;;;18.55;15.32;;;18.80;99.90;;;;;;2048900;29;20027;-71
2021/07/26 02:25:23;;;;;;;19.60;15.65;;;18.80;99.90;;;;;;2049088;28;20114;-73
2021/07/26 02:26:24;;;;;;;21.20;15.88;;;18.80;99.90;;;;;;2049116;28;20066;-73
2021/07/26 02:27:25;;;;;;;18.10;15.63;;;18.80;99.90;;;;;;2048824;29;20074;-72
2021/07/26 02:28:25;;;;;;;20.98;15.93;;;18.80;99.90;;;;;;2048232;29;20031;-73
2021/07/26 02:29:26;;;;;;;18.52;15.45;;;18.70;99.90;;;;;;2048931;29;20035;-72
2021/07/26 02:30:27;;;;;;;17.58;15.32;;;18.80;99.90;;;;;;2048940;28;20051;-72
2021/07/26 02:31:27;;;;;;;17.27;15.43;;;18.70;99.90;;;;;;2049017;29;20102;-72
2021/07/26 02:32:28;;;;;;;18.50;16.00;;;18.70;99.90;;;;;;2048982;29;20034;-72
2021/07/26 02:33:28;;;;;;;18.08;16.02;;;18.70;99.90;;;;;;2048435;29;20102;-73
2021/07/26 02:34:29;;;;;;;19.75;16.30;;;18.70;99.90;;;;;;2048329;29;20035;-73
2021/07/26 02:35:30;;;;;;;20.17;16.83;;;18.70;99.90;;;;;;2048203;29;20039;-72
2021/07/26 02:36:30;;;;;;;20.58;16.13;;;18.70;99.90;;;;;;2048520;29;20041;-72
2021/07/26 02:37:31;;;;;;;20.23;15.90;;;18.60;99.90;;;;;;2049107;29;20121;-72
2021/07/26 02:38:31;;;;;;;19.63;16.40;;;18.60;99.90;;;;;;2048243;28;20031;-72
2021/07/26 02:39:32;;;;;;;19.00;16.00;;;18.60;99.90;;;;;;2048276;29;20035;-72
2021/07/26 02:40:33;;;;;;;18.55;15.80;;;18.60;99.90;;;;;;2048423;29;20032;-72
2021/07/26 02:41:34;;;;;;;18.00;16.10;;;18.60;99.90;;;;;;2049012;29;20058;-73
2021/07/26 02:42:34;;;;;;;17.38;15.48;;;18.60;99.90;;;;;;2048595;29;20487;-73
2021/07/26 02:43:35;;;;;;;20.20;16.42;;;18.60;99.90;;;;;;2048758;28;20126;-72
2021/07/26 02:44:35;;;;;;;18.70;16.05;;;18.60;99.90;;;;;;2048662;29;20027;-72
2021/07/26 02:45:36;;;;;;;20.05;16.13;;;18.50;99.90;;;;;;2048851;28;20111;-73
2021/07/26 02:46:37;;;;;;;17.92;15.55;;;18.50;99.90;;;;;;2048884;28;20034;-72
2021/07/26 02:47:37;;;;;;;18.98;16.02;;;18.50;99.90;;;;;;2040407;29;20462;-72
2021/07/26 02:48:39;;;;;;;19.52;16.42;;;18.50;99.90;;;;;;2039704;29;20653;-72
2021/07/26 02:49:39;;;;;;;22.02;16.67;;;18.50;99.90;;;;;;2048720;29;20045;-73
2021/07/26 02:50:40;;;;;;;20.98;16.70;;;18.50;99.90;;;;;;2048713;29;20418;-72
2021/07/26 02:51:41;;;;;;;21.00;16.83;;;18.50;99.90;;;;;;2048644;29;20039;-72
2021/07/26 02:52:41;;;;;;;20.27;16.98;;;18.50;99.90;;;;;;2048823;28;20090;-73
2021/07/26 02:53:42;;;;;;;19.08;16.70;;;18.50;99.90;;;;;;2048627;29;20046;-72
2021/07/26 02:54:43;;;;;;;21.75;17.02;;;18.50;99.90;;;;;;2048930;28;20054;-72
2021/07/26 02:55:44;;;;;;;20.42;17.33;;;18.50;99.90;;;;;;2048200;29;20123;-71
2021/07/26 02:56:44;;;;;;;19.38;16.92;;;18.50;99.90;;;;;;2040279;29;20019;-71
2021/07/26 02:57:45;;;;;;;21.35;16.95;;;18.50;99.90;;;;;;2047867;29;20035;-71
2021/07/26 02:58:46;;;;;;;20.15;17.02;;;18.50;99.90;;;;;;2048394;29;20059;-72
2021/07/26 02:59:46;;;;;;;19.77;16.27;;;18.50;99.90;;;;;;2048828;29;20419;-71
2021/07/26 03:00:48;;;;;;;20.55;17.35;;;18.50;99.90;;;;;;2048649;28;20122;-72
2021/07/26 03:01:51;;;;;;;21.15;16.85;;;18.50;99.90;;;;;;2048663;29;20042;-71
2021/07/26 03:02:52;;;;;;;19.33;17.15;;;18.50;99.90;;;;;;2048639;28;20070;-72
2021/07/26 03:03:53;;;;;;;20.70;17.83;;;18.50;99.90;;;;;;2048002;29;20094;-72
2021/07/26 03:04:56;;;;;;;20.52;17.48;;;18.40;99.90;;;;;;2048140;29;20103;-72
2021/07/26 03:05:57;;;;;;;19.20;16.90;;;18.40;99.90;;;;;;2048926;28;20038;-72
2021/07/26 03:06:57;;;;;;;21.75;17.15;;;18.40;99.90;;;;;;2049153;29;20031;-72
2021/07/26 03:07:58;;;;;;;18.90;16.90;;;18.50;99.90;;;;;;2048239;29;20027;-72
2021/07/26 03:08:58;;;;;;;19.73;17.35;;;18.50;99.90;;;;;;2048618;29;20027;-72
2021/07/26 03:09:59;;;;;;;19.98;17.48;;;18.40;99.90;;;;;;2048646;29;20114;-71
2021/07/26 03:11:01;;;;;;;20.77;18.05;;;18.40;99.90;;;;;;2048121;29;20028;-72
2021/07/26 03:12:01;;;;;;;18.60;16.48;;;18.50;99.90;;;;;;2048241;29;20114;-71
2021/07/26 03:13:02;;;;;;;19.50;16.92;;;18.40;99.90;;;;;;2040471;29;20031;-72
2021/07/26 03:14:04;;;;;;;20.63;17.02;;;18.40;99.90;;;;;;2040113;29;20035;-72
2021/07/26 03:15:05;;;;;;;22.48;17.42;;;18.40;99.90;;;;;;2048676;28;20035;-72
2021/07/26 03:16:07;;;;;;;20.70;17.65;;;18.40;99.90;;;;;;2048745;29;20035;-72
2021/07/26 03:17:08;;;;;;;20.70;18.35;;;18.40;99.90;;;;;;2048552;29;20038;-73
2021/07/26 03:18:08;;;;;;;21.50;18.00;;;18.40;99.90;;;;;;2047779;29;20034;-71
2021/07/26 03:19:09;;;;;;;20.67;17.45;;;18.40;99.90;;;;;;2048602;29;20058;-71
2021/07/26 03:20:10;;;;;;;24.30;18.95;;;18.40;99.90;;;;;;2048600;29;20027;-71
2021/07/26 03:21:15;;;;;;;20.77;18.15;;;18.40;99.90;;;;;;2047627;29;20038;-71
2021/07/26 03:22:56;;;;;;;23.25;18.83;;;18.40;99.90;;;;;;2048081;29;20038;-72
2021/07/26 03:23:57;;;;;;;23.17;19.08;;;18.40;99.90;;;;;;2048596;29;20032;-71
2021/07/26 03:24:57;;;;;;;25.10;19.40;;;18.40;99.90;;;;;;2048463;29;20114;-71
2021/07/26 03:25:58;;;;;;;25.50;20.42;;;18.40;99.90;;;;;;2048608;29;20383;-71
2021/07/26 03:26:59;;;;;;;26.30;20.10;;;18.40;99.90;;;;;;2047819;29;20042;-71
2021/07/26 03:28:01;;;;;;;22.80;18.92;;;18.30;99.90;;;;;;2047207;29;20082;-71
2021/07/26 03:29:02;;;;;;;23.38;19.30;;;18.40;99.90;;;;;;2048604;29;20444;-72
2021/07/26 03:30:04;;;;;;;22.75;18.75;;;18.40;99.90;;;;;;2048771;28;20039;-71
2021/07/26 03:31:04;;;;;;;24.98;20.40;;;18.40;99.90;;;;;;2048546;29;20039;-72
2021/07/26 03:32:05;;;;;;;23.58;20.10;;;18.40;99.90;;;;;;2048736;29;20038;-72
2021/07/26 03:33:06;;;;;;;23.23;19.65;;;18.40;99.90;;;;;;2048526;29;20114;-72
2021/07/26 03:34:06;;;;;;;24.38;20.30;;;18.40;99.90;;;;;;2048566;28;20038;-71
2021/07/26 03:35:08;;;;;;;23.15;19.55;;;18.40;99.90;;;;;;2048655;29;20035;-72
2021/07/26 03:36:08;;;;;;;26.67;20.50;;;18.40;99.90;;;;;;2048591;28;20043;-72
2021/07/26 03:37:09;;;;;;;22.40;18.98;;;18.40;99.90;;;;;;2047925;29;20039;-72
2021/07/26 03:38:10;;;;;;;21.77;19.27;;;18.40;99.90;;;;;;2039231;29;20038;-72
2021/07/26 03:39:10;;;;;;;24.10;20.05;;;18.50;99.90;;;;;;2040121;29;20507;-72
2021/07/26 03:40:12;;;;;;;24.38;20.38;;;18.40;99.90;;;;;;2040137;29;20046;-72
2021/07/26 03:41:12;;;;;;;23.00;20.00;;;18.50;99.90;;;;;;2048537;28;20034;-72
2021/07/26 03:42:13;;;;;;;24.88;20.02;;;18.40;99.90;;;;;;2048690;29;20502;-72
2021/07/26 03:43:13;;;;;;;24.00;19.40;;;18.50;99.90;;;;;;2047823;29;20038;-72
2021/07/26 03:44:14;;;;;;;23.77;20.50;;;18.40;99.90;;;;;;2047884;29;20074;-72
2021/07/26 03:45:17;;;;;;;23.05;19.13;;;18.40;99.90;;;;;;2048353;28;20113;-72
2021/07/26 03:46:18;;;;;;;23.60;19.02;;;18.40;99.90;;;;;;2048590;29;20042;-72
2021/07/26 03:47:19;;;;;;;21.52;19.23;;;18.40;99.90;;;;;;2048404;29;20487;-72
2021/07/26 03:48:19;;;;;;;22.73;19.50;;;18.40;99.90;;;;;;2047728;29;20027;-72
2021/07/26 03:49:20;;;;;;;21.95;19.20;;;18.40;99.90;;;;;;2048270;29;20479;-72
2021/07/26 03:50:20;;;;;;;20.77;18.50;;;18.40;99.90;;;;;;2048263;29;20027;-72
2021/07/26 03:51:21;;;;;;;21.95;18.73;;;18.40;99.90;;;;;;2048489;29;20031;-72
2021/07/26 03:52:22;;;;;;;25.77;19.88;;;18.40;99.90;;;;;;2048706;29;20083;-72
2021/07/26 03:53:22;;;;;;;22.65;18.80;;;18.50;99.90;;;;;;2048523;28;20023;-71
2021/07/26 03:54:23;;;;;;;23.20;19.75;;;18.40;99.90;;;;;;2048544;28;20031;-71
2021/07/26 03:55:32;;;;;;;21.83;19.23;;;18.40;99.90;;;;;;2048217;28;20035;-71
2021/07/26 03:56:33;;;;;;;23.83;19.23;;;18.40;99.90;;;;;;2048472;28;20039;-72
2021/07/26 03:57:33;;;;;;;23.40;18.75;;;18.40;99.90;;;;;;2048914;29;20039;-71
2021/07/26 03:58:34;;;;;;;20.58;18.25;;;18.50;99.90;;;;;;2047891;29;20034;-71
2021/07/26 03:59:34;;;;;;;22.52;18.70;;;18.50;99.90;;;;;;2048437;28;20046;-71
2021/07/26 04:00:35;;;;;;;23.55;19.73;;;18.50;99.90;;;;;;2048534;29;20030;-71
2021/07/26 04:01:36;;;;;;;22.67;19.52;;;18.50;99.90;;;;;;2048436;28;20815;-71
2021/07/26 04:02:36;;;;;;;23.20;20.70;;;18.50;99.90;;;;;;2048487;29;20038;-73
2021/07/26 04:03:37;;;;;;;23.30;20.67;;;18.60;99.90;;;;;;2048223;29;20039;-71
2021/07/26 04:04:37;;;;;;;26.73;21.50;;;18.60;99.90;;;;;;2048302;29;20054;-71
2021/07/26 04:06:46;;;;;;;26.08;20.85;;;18.60;99.90;;;;;;2048411;28;20031;-71
2021/07/26 04:07:48;;;;;;;22.05;19.48;;;18.70;99.90;;;;;;2048302;28;20487;-71
2021/07/26 04:08:51;;;;;;;25.05;19.05;;;18.70;99.90;;;;;;2047534;28;20086;-71
2021/07/26 04:09:59;;;;;;;24.75;20.15;;;18.70;99.90;;;;;;2047641;29;20039;-71
2021/07/26 04:11:08;;;;;;;23.63;19.35;;;18.70;99.90;;;;;;2047648;29;20042;-72
2021/07/26 04:12:13;;;;;;;23.23;18.67;;;18.70;99.90;;;;;;2048815;29;20094;-72
2021/07/26 04:13:13;;;;;;;21.48;18.15;;;18.80;99.90;;;;;;2049554;29;20062;-72
2021/07/26 04:14:15;;;;;;;22.83;18.92;;;18.80;99.90;;;;;;2049315;29;20035;-71
2021/07/26 04:15:16;;;;;;;21.42;18.52;;;18.80;99.90;;;;;;2048663;29;20038;-72
2021/07/26 04:16:16;;;;;;;23.08;18.02;;;18.90;99.90;;;;;;2048562;29;20559;-72
2021/07/26 04:17:17;;;;;;;19.92;17.75;;;18.90;99.90;;;;;;2048305;28;20172;-72
2021/07/26 04:18:17;;;;;;;21.55;16.85;;;19.00;99.90;;;;;;2047811;29;20027;-72
2021/07/26 04:19:18;;;;;;;21.85;17.63;;;19.10;99.90;;;;;;2048324;28;20030;-73
2021/07/26 04:20:19;;;;;;;20.88;17.88;;;19.20;99.90;;;;;;2047776;29;20487;-72
2021/07/26 04:21:28;;;;;;;19.65;16.75;;;19.40;99.90;;;;;;2047685;29;20392;-71
2021/07/26 04:22:29;;;;;;;18.08;16.17;;;19.60;99.90;;;;;;2048274;29;20079;-71
2021/07/26 04:23:30;;;;;;;18.55;15.45;;;19.90;99.90;;;;;;2048149;29;20038;-71
2021/07/26 04:24:30;;;;;;;19.35;15.38;;;20.10;99.90;;;;;;2048134;29;20057;-71
2021/07/26 04:25:31;;;;;;;17.73;15.13;;;20.40;99.90;;;;;;2048213;29;20042;-71
2021/07/26 04:26:31;;;;;;;19.50;14.85;;;20.60;99.90;;;;;;2048263;29;20024;-71
2021/07/26 04:27:35;;;;;;;15.85;14.25;;;20.90;99.90;;;;;;2048483;28;20071;-72
2021/07/26 04:28:36;;;;;;;17.15;14.48;;;21.20;99.90;;;;;;2046863;29;20051;-72
2021/07/26 04:29:37;;;;;;;15.07;13.55;;;21.40;99.90;;;;;;2048147;29;20043;-72
2021/07/26 04:30:37;;;;;;;15.50;13.63;;;21.60;99.90;;;;;;2048156;28;20031;-72
2021/07/26 04:31:38;;;;;;;19.00;13.93;;;21.80;99.90;;;;;;2048258;29;20069;-72
2021/07/26 04:32:44;;;;;;;15.30;13.70;;;22.00;99.90;;;;;;2048204;29;20043;-72
2021/07/26 04:33:45;;;;;;;15.20;13.25;;;22.20;99.90;;;;;;2047231;29;20031;-72
2021/07/26 04:34:45;;;;;;;16.30;13.60;;;22.30;99.90;;;;;;2047574;29;20035;-72
2021/07/26 04:35:46;;;;;;;16.60;13.75;;;22.40;99.90;;;;;;2048067;28;20090;-72
2021/07/26 04:36:46;;;;;;;15.82;12.95;;;22.40;99.90;;;;;;2047656;29;20023;-72
2021/07/26 04:37:47;;;;;;;15.23;13.52;;;22.50;99.90;;;;;;2047522;29;20028;-72
2021/07/26 04:38:47;;;;;;;18.75;14.07;;;22.60;99.90;;;;;;2047352;28;20443;-72
2021/07/26 04:39:51;;;;;;;16.38;13.88;;;22.70;99.90;;;;;;2047328;29;20042;-72
2021/07/26 04:40:51;;;;;;;16.65;12.98;;;22.90;99.70;;;;;;2039388;28;20054;-72
2021/07/26 04:41:52;;;;;;;15.73;13.73;;;23.00;99.20;;;;;;2031593;29;20043;-71
2021/07/26 04:42:54;;;;;;;16.88;13.57;;;23.20;98.40;;;;;;2047426;29;20054;-72
2021/07/26 04:43:54;;;;;;;15.85;12.82;;;23.30;97.70;;;;;;2048003;28;20487;-72
2021/07/26 04:44:55;;;;;;;17.10;13.05;;;23.50;96.70;;;;;;2047261;29;20032;-72
2021/07/26 04:45:56;;;;;;;18.85;13.90;;;23.70;95.80;;;;;;2047434;29;20020;-72
2021/07/26 04:46:56;;;;;;;14.23;12.73;;;23.80;95.10;;;;;;2047924;29;20539;-72
2021/07/26 04:47:57;;;;;;;15.75;13.65;;;24.00;94.40;;;;;;2046940;29;20082;-72
2021/07/26 04:49:02;;;;;;;15.48;13.07;;;24.10;93.60;;;;;;2047713;29;20039;-73
2021/07/26 04:50:07;;;;;;;17.30;12.82;;;24.20;93.30;;;;;;2046917;29;20032;-73
2021/07/26 04:51:08;;;;;;;15.70;12.88;;;24.40;92.40;;;;;;2040294;29;20032;-73
2021/07/26 04:52:09;;;;;;;16.42;12.57;;;24.40;91.70;;;;;;2048637;29;20444;-73
2021/07/26 04:53:09;;;;;;;16.58;12.88;;;24.50;91.40;;;;;;2048722;29;20038;-72
2021/07/26 04:54:10;;;;;;;15.95;13.13;;;24.60;90.90;;;;;;2048276;29;20041;-73
2021/07/26 04:55:11;;;;;;;14.77;12.10;;;24.70;90.40;;;;;;2047974;28;20406;-72
2021/07/26 04:56:14;;;;;;;15.43;12.45;;;24.90;90.10;;;;;;2047808;29;20106;-73
2021/07/26 04:57:15;;;;;;;14.50;12.10;;;24.90;88.40;;;;;;2047408;29;20034;-72
2021/07/26 04:58:16;;;;;;;17.55;13.15;;;25.00;87.60;;;;;;2046695;29;21263;-72
2021/07/26 04:59:16;;;;;;;18.17;13.35;;;25.20;86.70;;;;;;2048029;28;20170;-73
2021/07/26 05:00:17;;;;;;;15.68;12.52;;;25.30;85.50;;;;;;2048039;29;20027;-73
2021/07/26 05:01:18;;;;;;;15.85;12.23;;;25.40;85.10;;;;;;2048203;29;20028;-72
2021/07/26 05:02:19;;;;;;;14.77;12.23;;;25.40;84.40;;;;;;2048037;29;20030;-73
2021/07/26 05:03:19;;;;;;;15.32;13.10;;;25.50;83.80;;;;;;2039587;29;20605;-72
2021/07/26 05:04:20;;;;;;;15.43;12.48;;;25.60;82.70;;;;;;2039329;29;20038;-72
2021/07/26 05:05:24;;;;;;;13.80;12.10;;;25.70;81.80;;;;;;2039480;29;20032;-72
2021/07/26 05:06:25;;;;;;;15.18;12.90;;;25.80;81.30;;;;;;2032082;29;20043;-73
2021/07/26 05:07:25;;;;;;;15.25;13.00;;;25.80;80.80;;;;;;2040688;29;20503;-72
2021/07/26 05:08:26;;;;;;;14.45;12.75;;;25.80;80.00;;;;;;2040209;29;20688;-72
2021/07/26 05:09:28;;;;;;;14.68;12.00;;;25.80;79.70;;;;;;2048981;29;20103;-73
2021/07/26 05:10:28;;;;;;;14.90;12.43;;;25.90;79.60;;;;;;2049611;29;20102;-72
2021/07/26 05:11:29;;;;;;;15.75;11.90;;;25.90;79.50;;;;;;2049316;29;20038;-73
2021/07/26 05:12:30;;;;;;;14.38;11.95;;;26.00;79.60;;;;;;2049457;29;20023;-73
2021/07/26 05:13:30;;;;;;;13.93;11.90;;;26.10;78.80;;;;;;2040989;29;20107;-72
2021/07/26 05:14:31;;;;;;;13.35;11.95;;;26.20;77.90;;;;;;2041047;29;20574;-73
2021/07/26 05:15:32;;;;;;;15.27;11.82;;;26.40;77.10;;;;;;2049078;28;20034;-72